Time;durP1;ratioP1;P1;durP2;ratioP2;P2;SDS_P1;SDS_P2;PMS_P1;PMS_P2;Temp;Humidity;BMP_temperature;BMP_pressure;BME280_temperature;BME280_humidity;BME280_pressure;Samples;Min_cycle;Max_cycle;Signal;HPM_P1;HPM_P2
2023/03/05 00:01:40;;;;;;;6.33;3.00;;;7.40;99.90;;;;;;5026700;28;20318;-70
2023/03/05 00:04:09;;;;;;;9.63;2.40;;;7.40;99.90;;;;;;5030196;28;20735;-69
2023/03/05 00:06:35;;;;;;;5.47;2.50;;;7.40;99.90;;;;;;5024532;28;20194;-69
2023/03/05 00:09:01;;;;;;;9.63;3.17;;;7.30;99.90;;;;;;5024408;28;20434;-69
2023/03/05 00:11:28;;;;;;;7.13;2.30;;;7.30;99.90;;;;;;5024584;28;20334;-69
2023/03/05 00:13:55;;;;;;;6.30;2.90;;;7.30;99.90;;;;;;5016010;28;20195;-70
2023/03/05 00:16:22;;;;;;;5.87;2.00;;;7.30;99.90;;;;;;5026036;28;20441;-71
2023/03/05 00:18:48;;;;;;;9.50;2.90;;;7.30;99.90;;;;;;5026554;28;20443;-69
2023/03/05 00:21:29;;;;;;;8.60;3.00;;;7.20;99.90;;;;;;5029058;28;20431;-70
2023/03/05 00:23:56;;;;;;;8.20;2.40;;;7.20;99.90;;;;;;5026692;28;20438;-71
2023/03/05 00:26:24;;;;;;;8.20;2.27;;;7.20;99.90;;;;;;5029824;28;20633;-71
2023/03/05 00:28:51;;;;;;;10.20;3.60;;;7.20;99.90;;;;;;5023117;28;20945;-71
2023/03/05 00:31:22;;;;;;;14.63;3.23;;;7.30;99.90;;;;;;5029460;28;20438;-71
2023/03/05 00:33:52;;;;;;;13.00;3.13;;;7.20;99.90;;;;;;5029945;28;20442;-70
2023/03/05 00:36:18;;;;;;;11.53;2.83;;;7.20;99.90;;;;;;5022141;28;20955;-70
2023/03/05 00:38:44;;;;;;;6.90;2.70;;;7.20;99.90;;;;;;5029146;28;20509;-71
2023/03/05 00:41:10;;;;;;;7.60;2.80;;;7.20;99.90;;;;;;5029206;28;20183;-70
2023/03/05 00:43:35;;;;;;;9.87;2.70;;;7.20;99.90;;;;;;5020686;28;20187;-70
2023/03/05 00:46:02;;;;;;;11.83;3.10;;;7.30;99.90;;;;;;5025205;28;20365;-70
2023/03/05 00:48:27;;;;;;;9.73;3.20;;;7.20;99.90;;;;;;5027314;28;20177;-69
2023/03/05 00:50:53;;;;;;;12.87;3.30;;;7.30;99.90;;;;;;5016044;28;20930;-69
2023/03/05 00:53:19;;;;;;;12.03;5.20;;;7.30;99.90;;;;;;5013060;28;20270;-69
2023/03/05 00:55:45;;;;;;;10.33;3.00;;;7.30;99.90;;;;;;5025236;28;20183;-69
2023/03/05 00:58:10;;;;;;;13.87;2.83;;;7.30;99.90;;;;;;5028625;28;20522;-70
2023/03/05 01:00:36;;;;;;;6.60;2.63;;;7.30;99.90;;;;;;5026123;28;20176;-69
2023/03/05 01:03:02;;;;;;;8.70;3.33;;;7.30;99.90;;;;;;5028872;28;20180;-71
2023/03/05 01:05:28;;;;;;;13.17;4.17;;;7.20;99.90;;;;;;5033179;28;20191;-71
2023/03/05 01:07:54;;;;;;;11.33;3.50;;;7.20;99.90;;;;;;5030447;28;20848;-71
2023/03/05 01:10:22;;;;;;;16.17;4.40;;;7.20;99.90;;;;;;5029123;28;20981;-70
2023/03/05 01:12:48;;;;;;;12.40;3.40;;;7.20;99.90;;;;;;5033269;28;20965;-70
2023/03/05 01:15:14;;;;;;;9.13;4.07;;;7.20;99.90;;;;;;5030495;28;20511;-71
2023/03/05 01:17:40;;;;;;;9.03;3.83;;;7.20;99.90;;;;;;5026272;28;20470;-71
2023/03/05 01:20:06;;;;;;;7.27;4.13;;;7.20;99.90;;;;;;5025575;28;20478;-71
2023/03/05 01:22:31;;;;;;;11.13;4.53;;;7.10;99.90;;;;;;5020305;28;20199;-72
2023/03/05 01:24:57;;;;;;;11.03;4.33;;;7.10;99.90;;;;;;5015483;28;20435;-71
2023/03/05 01:27:23;;;;;;;5.67;3.47;;;7.00;99.90;;;;;;5017205;28;20475;-72
2023/03/05 01:29:48;;;;;;;10.20;4.27;;;7.00;99.90;;;;;;5024103;28;20339;-71
2023/03/05 01:32:14;;;;;;;12.63;3.47;;;7.00;99.90;;;;;;5029988;28;20556;-71
2023/03/05 01:34:40;;;;;;;11.10;4.13;;;7.00;99.90;;;;;;5032963;28;20539;-71
2023/03/05 01:37:06;;;;;;;11.90;3.47;;;6.90;99.90;;;;;;5027707;28;20189;-72
2023/03/05 01:39:32;;;;;;;7.83;4.10;;;6.90;99.90;;;;;;5020916;28;20451;-71
2023/03/05 01:41:57;;;;;;;10.93;4.20;;;7.00;99.90;;;;;;5016200;28;20447;-71
2023/03/05 01:44:27;;;;;;;10.23;3.80;;;6.90;99.90;;;;;;5020221;28;20180;-71
2023/03/05 01:46:52;;;;;;;22.17;3.73;;;6.90;99.90;;;;;;5023293;28;20196;-71
2023/03/05 01:49:21;;;;;;;6.93;3.27;;;6.90;99.90;;;;;;5017358;28;20974;-72
2023/03/05 01:51:50;;;;;;;10.40;5.17;;;6.90;99.90;;;;;;5017772;28;20703;-72
2023/03/05 01:54:19;;;;;;;6.23;3.60;;;6.90;99.90;;;;;;5024905;28;20434;-71
2023/03/05 01:56:47;;;;;;;7.27;2.70;;;6.90;99.90;;;;;;5019195;28;20445;-72
2023/03/05 01:59:14;;;;;;;9.60;3.43;;;6.90;99.90;;;;;;5016791;28;20439;-71
2023/03/05 02:01:43;;;;;;;5.97;3.33;;;6.90;99.90;;;;;;5022432;28;20445;-71
2023/03/05 02:04:14;;;;;;;10.40;3.63;;;6.90;99.90;;;;;;5028032;28;20507;-71
2023/03/05 02:06:41;;;;;;;11.83;4.63;;;6.90;99.90;;;;;;5016091;28;20452;-71
2023/03/05 02:09:07;;;;;;;7.50;4.10;;;6.90;99.90;;;;;;5020407;28;20526;-71
2023/03/05 02:11:34;;;;;;;9.83;3.33;;;6.80;99.90;;;;;;5025913;28;20516;-71
2023/03/05 02:14:01;;;;;;;7.07;4.00;;;6.90;99.90;;;;;;5032426;28;20453;-71
2023/03/05 02:16:34;;;;;;;11.00;3.67;;;6.90;99.90;;;;;;5030451;28;20466;-71
2023/03/05 02:19:04;;;;;;;9.90;3.20;;;6.90;99.90;;;;;;5024774;28;20921;-71
2023/03/05 02:21:46;;;;;;;13.60;3.37;;;6.80;99.90;;;;;;5030565;28;20458;-71
2023/03/05 02:24:13;;;;;;;14.07;3.97;;;6.90;99.90;;;;;;5031461;28;20519;-71
2023/03/05 02:26:39;;;;;;;9.60;2.80;;;6.90;99.90;;;;;;5025906;28;20435;-71
2023/03/05 02:29:07;;;;;;;8.17;3.27;;;6.80;99.90;;;;;;5019370;28;20927;-71
2023/03/05 02:31:33;;;;;;;7.40;2.83;;;6.80;99.90;;;;;;5015650;28;20874;-71
2023/03/05 02:33:59;;;;;;;8.53;3.00;;;6.80;99.90;;;;;;5020537;28;20438;-71
2023/03/05 02:36:24;;;;;;;10.10;5.23;;;6.80;99.90;;;;;;5026336;28;20188;-71
2023/03/05 02:38:52;;;;;;;10.57;3.23;;;6.80;99.90;;;;;;5032180;28;20194;-70
2023/03/05 02:41:18;;;;;;;8.23;3.73;;;6.70;99.90;;;;;;5029683;28;20275;-69
2023/03/05 02:43:43;;;;;;;5.77;2.90;;;6.70;99.90;;;;;;5023653;28;20973;-69
2023/03/05 02:46:09;;;;;;;12.43;3.20;;;6.70;99.90;;;;;;5017199;28;20471;-70
2023/03/05 02:48:34;;;;;;;5.80;2.93;;;6.70;99.90;;;;;;5016302;28;20283;-70
2023/03/05 02:51:02;;;;;;;8.47;2.93;;;6.70;99.90;;;;;;5021627;28;20662;-71
2023/03/05 02:53:27;;;;;;;12.77;3.30;;;6.70;99.90;;;;;;5027939;28;20261;-71
2023/03/05 02:55:53;;;;;;;7.97;2.90;;;6.60;99.90;;;;;;5032274;28;20454;-71
2023/03/05 02:58:18;;;;;;;11.63;3.53;;;6.60;99.90;;;;;;5025529;28;20215;-71
2023/03/05 03:00:45;;;;;;;12.23;3.33;;;6.60;99.90;;;;;;5025558;28;20607;-71
2023/03/05 03:03:12;;;;;;;8.03;3.40;;;6.60;99.90;;;;;;5031388;28;20183;-70
2023/03/05 03:05:37;;;;;;;9.30;4.27;;;6.60;99.90;;;;;;5026356;28;20451;-70
2023/03/05 03:08:03;;;;;;;8.63;3.23;;;6.70;99.90;;;;;;5023951;28;20442;-70
2023/03/05 03:10:29;;;;;;;10.30;3.57;;;6.70;99.90;;;;;;5017672;28;20571;-70
2023/03/05 03:12:55;;;;;;;6.90;3.50;;;6.60;99.90;;;;;;5015275;28;20489;-70
2023/03/05 03:15:21;;;;;;;4.77;2.70;;;6.60;99.90;;;;;;5020765;28;20434;-71
2023/03/05 03:17:47;;;;;;;11.83;4.40;;;6.60;99.90;;;;;;5026804;28;20188;-71
2023/03/05 03:20:15;;;;;;;6.17;4.40;;;6.70;99.90;;;;;;5031705;28;20187;-70
2023/03/05 05:30:53;;;;;;;22.20;8.30;;;6.30;99.90;;;;;;5742616;23;20504;-70
2023/03/05 05:33:20;;;;;;;11.87;7.57;;;6.40;99.90;;;;;;4895426;29;20835;-71
2023/03/05 05:35:45;;;;;;;11.90;7.60;;;6.40;99.90;;;;;;4890311;29;20912;-71
2023/03/05 05:38:11;;;;;;;10.13;7.17;;;6.40;99.90;;;;;;4884913;29;20478;-71
2023/03/05 05:40:37;;;;;;;15.60;8.50;;;6.40;99.90;;;;;;4883715;29;20217;-71
2023/03/05 05:43:03;;;;;;;17.20;7.60;;;6.30;99.90;;;;;;4889112;29;20196;-71
2023/03/05 05:45:29;;;;;;;11.97;6.63;;;6.30;99.90;;;;;;4894064;29;20615;-71
2023/03/05 05:47:54;;;;;;;13.20;7.20;;;6.30;99.90;;;;;;4898178;29;20483;-72
2023/03/05 05:50:20;;;;;;;11.77;6.70;;;6.30;99.90;;;;;;4893672;29;20527;-71
2023/03/05 05:52:46;;;;;;;11.60;7.20;;;6.30;99.90;;;;;;4888386;29;20224;-71
2023/03/05 05:55:12;;;;;;;12.30;5.93;;;6.30;99.90;;;;;;4883072;29;20189;-71
2023/03/05 05:57:38;;;;;;;9.33;5.50;;;6.40;99.90;;;;;;4884569;29;20279;-71
2023/03/05 06:00:06;;;;;;;8.20;5.30;;;6.40;99.90;;;;;;4889891;29;20190;-74
2023/03/05 06:02:32;;;;;;;6.40;3.83;;;6.30;99.90;;;;;;4895182;29;20189;-74
2023/03/05 06:04:57;;;;;;;11.33;4.67;;;6.40;99.90;;;;;;4886237;29;20966;-74
2023/03/05 06:07:23;;;;;;;12.40;4.30;;;6.30;99.90;;;;;;4888034;29;20193;-72
2023/03/05 06:09:48;;;;;;;5.23;4.00;;;6.30;99.90;;;;;;4893230;29;20180;-70
2023/03/05 06:12:14;;;;;;;8.40;3.80;;;6.30;99.90;;;;;;4882519;29;20557;-70
2023/03/05 06:14:39;;;;;;;8.47;4.73;;;6.20;99.90;;;;;;4885927;29;20527;-70
2023/03/05 06:17:05;;;;;;;7.50;5.03;;;6.20;99.90;;;;;;4891162;29;20597;-71
2023/03/05 06:19:31;;;;;;;9.57;4.67;;;6.20;99.90;;;;;;4896632;29;20192;-71
2023/03/05 06:21:57;;;;;;;9.00;5.87;;;6.10;99.90;;;;;;4896080;29;20551;-70
2023/03/05 06:24:22;;;;;;;10.47;5.67;;;6.10;99.90;;;;;;4890497;29;20192;-70
2023/03/05 06:26:48;;;;;;;9.80;5.30;;;6.10;99.90;;;;;;4885166;29;20441;-74
2023/03/05 06:29:14;;;;;;;7.50;5.43;;;6.10;99.90;;;;;;4881870;29;20193;-71
2023/03/05 06:31:39;;;;;;;10.37;5.50;;;6.10;99.90;;;;;;4887029;29;20331;-70
2023/03/05 06:34:05;;;;;;;10.80;5.57;;;6.20;99.90;;;;;;4892701;29;20457;-70
2023/03/05 06:36:31;;;;;;;11.57;5.87;;;6.20;99.90;;;;;;4897422;29;20215;-70
2023/03/05 06:38:57;;;;;;;12.90;5.43;;;6.20;99.90;;;;;;4894513;29;20275;-68
2023/03/05 06:41:28;;;;;;;14.37;6.70;;;6.20;99.90;;;;;;4891397;29;20189;-70
2023/03/05 06:43:54;;;;;;;18.13;6.17;;;6.30;99.90;;;;;;4893072;29;20429;-70
2023/03/05 06:46:28;;;;;;;9.63;5.90;;;6.40;99.90;;;;;;4892254;29;20459;-69
2023/03/05 06:48:56;;;;;;;10.20;7.00;;;6.40;99.90;;;;;;4895512;29;20443;-71
2023/03/05 06:51:24;;;;;;;11.63;6.20;;;6.40;99.90;;;;;;4894430;29;20580;-71
2023/03/05 06:53:51;;;;;;;17.80;8.70;;;6.50;99.90;;;;;;4880356;29;20961;-71
2023/03/05 06:56:18;;;;;;;13.43;7.57;;;6.50;99.90;;;;;;4884931;29;20436;-73
2023/03/05 06:58:45;;;;;;;15.40;7.30;;;6.50;99.90;;;;;;4891246;29;20565;-70
2023/03/05 07:01:11;;;;;;;16.03;8.83;;;6.50;99.90;;;;;;4895958;29;20457;-70
2023/03/05 07:03:37;;;;;;;15.30;10.03;;;6.50;99.90;;;;;;4893041;29;20937;-70
2023/03/05 07:06:04;;;;;;;15.50;10.60;;;6.40;99.90;;;;;;4887220;29;20529;-71
2023/03/05 07:08:31;;;;;;;17.80;9.87;;;6.50;99.90;;;;;;4891693;29;20944;-70
2023/03/05 07:10:57;;;;;;;15.80;9.30;;;6.50;99.90;;;;;;4894593;29;20445;-70
2023/03/05 07:13:23;;;;;;;14.73;10.10;;;6.50;99.90;;;;;;4888741;29;20485;-71
2023/03/05 07:15:48;;;;;;;14.07;10.00;;;6.50;99.90;;;;;;4882848;29;20436;-70
2023/03/05 07:18:14;;;;;;;16.23;10.00;;;6.50;99.90;;;;;;4878918;29;20200;-71
2023/03/05 07:20:39;;;;;;;12.93;8.43;;;6.50;99.90;;;;;;4883771;29;20181;-71
2023/03/05 07:23:05;;;;;;;16.80;8.57;;;6.50;99.90;;;;;;4890144;29;20192;-70
2023/03/05 07:25:31;;;;;;;16.00;8.93;;;6.50;99.90;;;;;;4895372;29;20227;-69
2023/03/05 07:27:57;;;;;;;17.93;10.30;;;6.50;99.90;;;;;;4888846;29;20216;-69
2023/03/05 07:30:23;;;;;;;11.63;8.33;;;6.70;99.90;;;;;;4895109;29;20508;-69
2023/03/05 07:32:48;;;;;;;14.60;9.00;;;6.80;99.90;;;;;;4892088;29;20494;-69
2023/03/05 07:35:14;;;;;;;18.07;10.03;;;6.80;99.90;;;;;;4892399;29;20239;-71
2023/03/05 07:37:39;;;;;;;11.67;8.40;;;6.80;99.90;;;;;;4894104;29;20180;-69
2023/03/05 07:40:06;;;;;;;23.40;9.20;;;6.90;99.90;;;;;;4895766;29;20620;-69
2023/03/05 07:42:32;;;;;;;16.60;9.13;;;6.90;99.90;;;;;;4891425;29;20651;-70
2023/03/05 07:44:58;;;;;;;16.40;9.13;;;6.90;99.90;;;;;;4894109;29;20440;-70
2023/03/05 07:47:23;;;;;;;16.00;9.10;;;6.90;99.90;;;;;;4894801;29;21153;-70
2023/03/05 07:49:49;;;;;;;18.53;9.93;;;6.90;99.90;;;;;;4889952;29;20252;-70
2023/03/05 07:52:15;;;;;;;17.13;9.10;;;6.90;99.90;;;;;;4893406;29;20632;-70
2023/03/05 07:54:40;;;;;;;15.73;8.37;;;6.90;99.90;;;;;;4894996;29;20687;-70
2023/03/05 07:57:07;;;;;;;12.67;7.20;;;7.00;99.90;;;;;;4891620;29;20317;-70
2023/03/05 07:59:33;;;;;;;17.97;7.70;;;7.00;99.90;;;;;;4892260;29;20180;-70
2023/03/05 08:01:59;;;;;;;18.07;8.00;;;7.00;99.90;;;;;;4894818;29;20436;-69
2023/03/05 08:04:24;;;;;;;16.63;7.73;;;7.00;99.90;;;;;;4893541;29;20192;-69
2023/03/05 08:06:50;;;;;;;18.37;7.90;;;7.00;99.90;;;;;;4891598;29;20188;-71
2023/03/05 08:09:17;;;;;;;17.27;8.40;;;7.10;99.90;;;;;;4895289;29;20243;-70
2023/03/05 08:11:42;;;;;;;11.67;7.60;;;7.10;99.90;;;;;;4897220;29;20347;-70
2023/03/05 08:14:09;;;;;;;14.77;7.80;;;7.20;99.90;;;;;;4897149;29;20468;-69
2023/03/05 08:16:35;;;;;;;16.47;9.33;;;7.10;99.90;;;;;;4883218;29;20656;-70
2023/03/05 08:19:00;;;;;;;16.30;9.43;;;7.00;99.90;;;;;;4897819;29;20483;-71
2023/03/05 08:21:29;;;;;;;10.93;8.20;;;7.00;99.90;;;;;;4896135;29;20481;-72
2023/03/05 08:23:56;;;;;;;12.20;9.00;;;7.00;99.90;;;;;;4896238;29;20441;-72
2023/03/05 08:26:24;;;;;;;17.67;9.70;;;7.00;99.90;;;;;;4893638;29;20437;-70
2023/03/05 08:28:50;;;;;;;12.13;9.37;;;7.00;99.90;;;;;;4891798;29;20500;-72
2023/03/05 08:31:18;;;;;;;16.83;9.43;;;6.90;99.90;;;;;;4897433;29;20471;-71
2023/03/05 08:33:44;;;;;;;17.60;9.50;;;6.80;99.90;;;;;;4897927;29;20442;-71
2023/03/05 08:36:09;;;;;;;18.20;9.50;;;6.90;99.90;;;;;;4897677;29;20944;-71
2023/03/05 08:38:35;;;;;;;18.80;8.80;;;6.90;99.90;;;;;;4894334;29;20949;-71
2023/03/05 08:41:01;;;;;;;21.03;9.83;;;6.80;99.90;;;;;;4895136;29;20223;-71
2023/03/05 08:43:27;;;;;;;17.50;10.10;;;6.90;99.90;;;;;;4897771;29;20448;-71
2023/03/05 08:45:52;;;;;;;12.63;8.60;;;6.90;99.90;;;;;;4897730;29;20937;-72
2023/03/05 08:48:19;;;;;;;15.70;8.80;;;6.90;99.90;;;;;;4893572;29;20225;-72
2023/03/05 08:50:44;;;;;;;12.50;8.93;;;6.90;99.90;;;;;;4895321;29;20436;-74
2023/03/05 08:53:10;;;;;;;18.10;9.10;;;6.90;99.90;;;;;;4897348;29;20711;-73
2023/03/05 08:55:36;;;;;;;15.67;9.93;;;7.00;99.90;;;;;;4893417;29;20239;-73
2023/03/05 08:58:03;;;;;;;18.03;9.00;;;7.00;99.90;;;;;;4895073;29;20607;-73
2023/03/05 09:00:28;;;;;;;18.00;8.80;;;7.10;99.90;;;;;;4895036;29;20464;-73
2023/03/05 09:02:54;;;;;;;11.90;10.43;;;7.20;99.90;;;;;;4884346;29;20445;-72
2023/03/05 09:05:19;;;;;;;20.83;10.43;;;7.10;99.90;;;;;;4890343;29;20181;-73
2023/03/05 09:07:45;;;;;;;14.70;10.87;;;7.20;99.90;;;;;;4889912;29;20254;-74
2023/03/05 09:10:13;;;;;;;13.97;11.33;;;7.30;99.90;;;;;;4891480;29;20192;-73
2023/03/05 09:12:39;;;;;;;19.83;11.23;;;7.30;99.90;;;;;;4881591;29;20314;-72
2023/03/05 09:15:07;;;;;;;17.63;10.60;;;7.30;99.90;;;;;;4887709;29;20797;-73
2023/03/05 09:17:33;;;;;;;11.83;9.97;;;7.30;99.90;;;;;;4892595;29;20452;-73
2023/03/05 09:19:59;;;;;;;20.63;12.90;;;7.40;99.90;;;;;;4891837;29;20790;-72
2023/03/05 09:22:25;;;;;;;14.93;10.43;;;7.40;99.90;;;;;;4894601;29;20452;-73
2023/03/05 09:24:50;;;;;;;14.47;9.70;;;7.40;99.90;;;;;;4890168;29;20441;-72
2023/03/05 09:27:16;;;;;;;12.07;10.00;;;7.40;99.90;;;;;;4887673;29;20672;-72
2023/03/05 09:29:41;;;;;;;21.33;11.57;;;7.40;99.90;;;;;;4883650;29;20213;-73
2023/03/05 09:32:07;;;;;;;14.87;10.03;;;7.40;99.90;;;;;;4886801;29;20332;-72
2023/03/05 09:34:33;;;;;;;13.53;11.43;;;7.40;99.90;;;;;;4892583;29;20197;-72
2023/03/05 09:36:59;;;;;;;15.73;12.30;;;7.20;99.90;;;;;;4884446;29;20198;-72
2023/03/05 09:39:24;;;;;;;18.40;13.83;;;7.30;99.90;;;;;;4884356;29;20750;-72
2023/03/05 09:42:14;;;;;;;16.40;13.17;;;7.30;99.90;;;;;;4889178;29;20181;-72
2023/03/05 09:45:05;;;;;;;17.07;14.57;;;7.30;99.90;;;;;;4883748;29;20215;-72
2023/03/05 09:48:08;;;;;;;17.00;14.23;;;7.20;99.90;;;;;;4892933;29;20462;-71
2023/03/05 09:50:38;;;;;;;20.83;13.30;;;7.20;99.90;;;;;;4869715;29;20449;-72
2023/03/05 09:53:20;;;;;;;18.60;14.37;;;7.20;99.90;;;;;;4892390;29;20488;-72
2023/03/05 09:56:01;;;;;;;22.33;13.20;;;7.30;99.90;;;;;;4890426;29;20478;-73
2023/03/05 09:58:36;;;;;;;19.00;14.10;;;7.20;99.90;;;;;;4893152;29;20509;-73
2023/03/05 10:01:16;;;;;;;18.83;13.00;;;7.30;99.90;;;;;;4892296;29;20432;-73
2023/03/05 10:03:49;;;;;;;19.00;13.50;;;7.30;99.90;;;;;;4883681;29;20480;-73
2023/03/05 10:06:25;;;;;;;16.83;12.03;;;7.30;99.90;;;;;;4888532;29;20433;-73
2023/03/05 10:08:53;;;;;;;15.07;11.13;;;7.30;99.90;;;;;;4888014;29;20853;-73
2023/03/05 10:11:38;;;;;;;17.23;11.73;;;7.40;99.90;;;;;;4887931;29;21173;-73
2023/03/05 10:14:05;;;;;;;14.03;12.37;;;7.40;99.90;;;;;;4889622;29;20488;-73
2023/03/05 10:16:54;;;;;;;13.63;11.80;;;7.30;99.90;;;;;;4883613;29;20445;-73
2023/03/05 10:19:38;;;;;;;12.80;10.80;;;7.20;99.90;;;;;;4851800;29;20463;-72
2023/03/05 10:22:29;;;;;;;15.10;12.93;;;7.30;99.90;;;;;;4890573;29;20465;-72
2023/03/05 10:25:19;;;;;;;15.90;12.37;;;7.30;99.90;;;;;;4888170;29;20800;-72
2023/03/05 10:27:53;;;;;;;14.10;12.60;;;7.30;99.90;;;;;;4890586;29;20483;-72
2023/03/05 10:30:24;;;;;;;16.43;12.03;;;7.30;99.90;;;;;;4888951;29;20429;-72
2023/03/05 10:33:19;;;;;;;15.80;12.40;;;7.40;99.90;;;;;;4890451;29;20528;-72
2023/03/05 10:35:52;;;;;;;16.20;11.50;;;7.40;99.90;;;;;;4825548;29;20958;-71
2023/03/05 10:38:50;;;;;;;15.13;12.00;;;7.30;99.90;;;;;;4891290;29;20530;-71
2023/03/05 10:41:47;;;;;;;17.40;12.27;;;7.30;99.90;;;;;;4874571;29;20460;-71
2023/03/05 10:44:20;;;;;;;14.00;9.37;;;7.30;99.90;;;;;;4883159;29;20529;-72
2023/03/05 10:46:47;;;;;;;9.30;7.40;;;7.30;99.90;;;;;;4888017;29;20430;-72
2023/03/05 10:49:28;;;;;;;9.67;6.93;;;7.20;99.90;;;;;;4894432;29;20448;-73
2023/03/05 10:52:07;;;;;;;10.20;7.60;;;7.10;99.90;;;;;;4882928;29;20480;-72
2023/03/05 10:54:34;;;;;;;10.17;9.07;;;7.20;99.90;;;;;;4888078;29;20440;-72
2023/03/05 10:57:12;;;;;;;14.20;9.27;;;7.30;99.90;;;;;;4893383;29;20770;-72
2023/03/05 10:59:57;;;;;;;12.40;8.93;;;7.20;99.90;;;;;;4891180;29;20448;-72
2023/03/05 11:02:23;;;;;;;12.10;9.07;;;7.20;99.90;;;;;;4893894;29;21169;-73
2023/03/05 11:04:50;;;;;;;14.57;8.50;;;7.30;99.90;;;;;;4895043;29;20503;-72
2023/03/05 11:07:16;;;;;;;10.90;8.53;;;7.30;99.90;;;;;;4895570;29;20936;-73
2023/03/05 11:09:42;;;;;;;10.30;8.37;;;7.30;99.90;;;;;;4895526;29;20444;-73
2023/03/05 11:12:17;;;;;;;11.80;7.63;;;7.30;99.90;;;;;;4895529;29;20736;-74
2023/03/05 11:14:43;;;;;;;7.90;7.10;;;7.20;99.90;;;;;;4885550;29;20774;-75
2023/03/05 11:17:43;;;;;;;8.73;6.47;;;7.20;99.90;;;;;;4883069;29;20520;-73
2023/03/05 11:20:27;;;;;;;7.10;6.20;;;7.30;99.90;;;;;;4863882;29;20437;-73
2023/03/05 11:23:24;;;;;;;8.57;6.13;;;7.30;99.90;;;;;;4895014;29;20480;-75
2023/03/05 11:26:01;;;;;;;7.20;6.27;;;7.30;99.90;;;;;;4885735;29;20429;-71
2023/03/05 11:28:35;;;;;;;8.40;6.13;;;7.30;99.90;;;;;;4890861;29;20450;-71
2023/03/05 11:31:22;;;;;;;11.27;6.00;;;7.30;99.90;;;;;;4895465;29;20987;-72
2023/03/05 11:34:29;;;;;;;6.90;6.20;;;7.30;99.90;;;;;;4892166;29;20540;-70
2023/03/05 11:36:55;;;;;;;6.17;5.57;;;7.30;99.90;;;;;;4890177;29;20436;-71
2023/03/05 11:39:23;;;;;;;9.47;6.07;;;7.40;99.90;;;;;;4895409;29;20451;-72
2023/03/05 11:42:00;;;;;;;6.30;5.43;;;7.40;99.90;;;;;;4883118;29;20532;-72
2023/03/05 11:44:33;;;;;;;7.73;5.90;;;7.40;99.90;;;;;;4887409;29;20564;-73
2023/03/05 11:47:16;;;;;;;7.73;6.57;;;7.50;99.90;;;;;;4881950;29;20437;-73
2023/03/05 11:49:46;;;;;;;7.63;6.83;;;7.50;99.90;;;;;;4873377;29;20696;-75
2023/03/05 11:52:21;;;;;;;7.07;5.50;;;7.40;99.90;;;;;;4891449;29;20469;-81
2023/03/05 11:55:21;;;;;;;8.10;5.90;;;7.40;99.90;;;;;;4892580;29;20537;-71
2023/03/05 11:58:12;;;;;;;7.67;6.07;;;7.40;99.90;;;;;;4872689;29;20460;-72
2023/03/05 12:00:43;;;;;;;9.53;6.10;;;7.40;99.90;;;;;;4859992;29;20444;-73
2023/03/05 12:03:17;;;;;;;10.00;5.17;;;7.50;99.90;;;;;;4892803;29;20448;-76
2023/03/05 12:05:51;;;;;;;6.67;5.27;;;7.50;99.90;;;;;;4890332;29;20460;-77
2023/03/05 12:08:24;;;;;;;7.90;5.67;;;7.60;99.90;;;;;;4893585;29;20457;-77
2023/03/05 12:10:50;;;;;;;6.73;5.00;;;7.60;99.90;;;;;;4892807;29;20445;-74
2023/03/05 12:13:34;;;;;;;7.80;5.50;;;7.70;99.90;;;;;;4889613;29;20485;-72
2023/03/05 12:16:15;;;;;;;7.87;4.97;;;7.80;99.90;;;;;;4889366;29;20181;-74
2023/03/05 12:18:53;;;;;;;6.13;4.73;;;7.90;99.90;;;;;;4895187;29;20429;-77
2023/03/05 12:21:35;;;;;;;15.70;4.60;;;8.00;99.90;;;;;;4891094;29;20515;-77
2023/03/05 12:24:23;;;;;;;4.37;3.97;;;8.00;99.90;;;;;;4895433;29;20444;-75
2023/03/05 12:27:05;;;;;;;11.93;4.53;;;8.10;99.90;;;;;;4894680;29;20895;-74
2023/03/05 12:29:50;;;;;;;5.50;3.83;;;8.00;99.90;;;;;;4891235;29;20944;-75
2023/03/05 12:32:24;;;;;;;6.87;4.77;;;8.00;99.90;;;;;;4895596;29;20480;-71
2023/03/05 12:34:58;;;;;;;6.27;4.37;;;8.00;99.90;;;;;;4892564;29;20511;-72
2023/03/05 12:37:23;;;;;;;4.63;4.00;;;8.00;99.90;;;;;;4893283;29;20425;-72
2023/03/05 12:39:59;;;;;;;8.20;3.80;;;8.10;99.90;;;;;;4885982;29;20831;-73
2023/03/05 12:42:28;;;;;;;4.10;3.70;;;8.10;99.90;;;;;;4890337;29;20185;-73
2023/03/05 12:45:09;;;;;;;6.00;4.30;;;8.00;99.90;;;;;;4883658;29;20441;-72
2023/03/05 12:47:39;;;;;;;5.90;4.23;;;7.90;99.90;;;;;;4882293;29;20436;-72
2023/03/05 12:50:27;;;;;;;9.40;5.07;;;7.90;99.90;;;;;;4888714;29;20449;-73
2023/03/05 12:52:56;;;;;;;7.23;4.87;;;7.80;99.90;;;;;;4881162;29;20524;-73
2023/03/05 12:55:43;;;;;;;8.47;5.17;;;7.80;99.90;;;;;;4887281;29;20432;-73
2023/03/05 12:58:34;;;;;;;10.33;5.70;;;7.70;99.90;;;;;;4891524;29;20438;-72
2023/03/05 13:01:15;;;;;;;9.23;5.87;;;7.70;99.90;;;;;;4885199;29;20845;-72
2023/03/05 13:03:49;;;;;;;6.80;5.80;;;7.70;99.90;;;;;;4887648;29;20439;-71
2023/03/05 13:06:28;;;;;;;10.03;6.90;;;7.70;99.90;;;;;;4893222;29;20472;-74
2023/03/05 13:09:18;;;;;;;6.97;6.27;;;7.80;99.90;;;;;;4895061;29;20440;-72
2023/03/05 13:11:47;;;;;;;7.73;6.10;;;7.90;99.90;;;;;;4886560;29;20589;-74
2023/03/05 13:14:33;;;;;;;9.63;7.23;;;7.90;99.90;;;;;;4891081;29;20454;-72
2023/03/05 13:16:59;;;;;;;9.17;6.33;;;7.90;99.90;;;;;;4885116;29;20430;-72
2023/03/05 13:19:26;;;;;;;8.70;6.80;;;7.90;99.90;;;;;;4883278;29;20952;-73
2023/03/05 13:22:10;;;;;;;10.50;6.73;;;7.90;99.90;;;;;;4890252;29;20440;-73
2023/03/05 13:24:35;;;;;;;10.40;6.90;;;7.90;99.90;;;;;;4885346;29;20438;-73
2023/03/05 13:27:01;;;;;;;8.73;7.00;;;8.00;99.90;;;;;;4882630;29;20436;-72
2023/03/05 13:29:29;;;;;;;7.93;6.67;;;8.00;99.90;;;;;;4893162;29;20193;-72
2023/03/05 13:32:00;;;;;;;9.30;7.67;;;8.10;99.90;;;;;;4887385;29;20244;-79
2023/03/05 13:34:25;;;;;;;8.47;7.60;;;8.30;99.90;;;;;;4882981;29;20504;-75
2023/03/05 13:37:01;;;;;;;9.73;8.03;;;8.40;99.90;;;;;;4885833;29;20437;-76
2023/03/05 13:39:42;;;;;;;8.70;6.27;;;8.50;99.90;;;;;;4876213;29;20668;-75
2023/03/05 13:42:21;;;;;;;10.60;7.00;;;8.60;99.90;;;;;;4884248;29;20445;-76
2023/03/05 13:44:58;;;;;;;13.30;7.33;;;8.50;99.90;;;;;;4895591;29;20432;-75
2023/03/05 13:47:29;;;;;;;10.73;7.83;;;8.60;99.90;;;;;;4890587;29;20452;-75
2023/03/05 13:50:00;;;;;;;8.83;7.27;;;8.70;99.90;;;;;;4896994;29;20528;-76
2023/03/05 13:52:32;;;;;;;10.97;7.60;;;8.70;99.90;;;;;;4897187;29;20467;-75
2023/03/05 13:54:59;;;;;;;12.67;7.37;;;8.80;99.90;;;;;;4890654;29;20455;-76
2023/03/05 13:57:46;;;;;;;8.07;7.27;;;9.00;99.90;;;;;;4885530;29;20849;-76
2023/03/05 14:00:34;;;;;;;9.07;7.63;;;8.90;99.90;;;;;;4882666;29;20447;-75
2023/03/05 14:03:15;;;;;;;8.53;7.63;;;9.00;99.90;;;;;;4888961;29;20440;-72
2023/03/05 14:05:44;;;;;;;10.27;7.57;;;9.20;99.90;;;;;;4884940;29;20465;-85
2023/03/05 14:08:20;;;;;;;10.30;7.10;;;9.30;99.90;;;;;;4892714;29;20434;-77
2023/03/05 14:10:45;;;;;;;7.40;6.70;;;9.30;99.90;;;;;;4891938;29;20446;-78
2023/03/05 14:13:17;;;;;;;13.90;7.57;;;9.40;99.90;;;;;;4893417;29;20496;-79
2023/03/05 14:16:05;;;;;;;6.33;5.73;;;9.50;99.90;;;;;;4897873;29;20185;-76
2023/03/05 14:18:31;;;;;;;6.63;5.27;;;9.50;99.90;;;;;;4892740;29;20578;-71
2023/03/05 14:21:04;;;;;;;7.60;5.20;;;9.60;99.90;;;;;;4886077;29;20557;-75
2023/03/05 14:23:42;;;;;;;9.40;5.50;;;9.60;99.90;;;;;;4881689;29;20450;-80
2023/03/05 14:26:19;;;;;;;7.20;5.80;;;9.60;99.90;;;;;;4893408;29;20439;-83
2023/03/05 14:29:00;;;;;;;10.13;6.30;;;9.50;99.90;;;;;;4889217;29;20580;-72
2023/03/05 14:31:28;;;;;;;8.47;5.83;;;9.40;99.90;;;;;;4886980;29;20484;-75
2023/03/05 14:33:59;;;;;;;9.77;5.63;;;9.40;99.90;;;;;;4884166;29;20497;-73
2023/03/05 14:36:28;;;;;;;7.00;6.10;;;9.30;99.90;;;;;;4889052;29;20891;-70
2023/03/05 14:38:54;;;;;;;8.80;6.17;;;9.30;99.90;;;;;;4894619;29;20445;-71
2023/03/05 14:41:40;;;;;;;7.37;6.47;;;9.20;99.90;;;;;;4895633;29;20444;-71
2023/03/05 14:44:16;;;;;;;6.47;5.47;;;9.20;99.90;;;;;;4889045;29;20295;-72
2023/03/05 14:46:46;;;;;;;6.87;6.17;;;9.10;99.90;;;;;;4893893;29;20750;-73
2023/03/05 14:49:12;;;;;;;7.73;6.13;;;9.10;99.90;;;;;;4896079;29;20428;-73
2023/03/05 14:51:41;;;;;;;11.10;6.93;;;9.10;99.90;;;;;;4890936;29;20468;-72
2023/03/05 14:54:16;;;;;;;9.67;6.47;;;9.00;99.90;;;;;;4892219;29;20200;-74
2023/03/05 14:56:41;;;;;;;8.13;6.53;;;8.90;99.90;;;;;;4896441;29;20467;-73
2023/03/05 14:59:08;;;;;;;9.60;6.53;;;8.90;99.90;;;;;;4891792;29;20476;-75
2023/03/05 15:01:33;;;;;;;9.20;6.73;;;8.90;99.90;;;;;;4886224;29;20199;-74
2023/03/05 15:03:59;;;;;;;8.53;6.77;;;8.90;99.90;;;;;;4880829;29;20437;-73
2023/03/05 15:06:35;;;;;;;7.53;6.67;;;8.90;99.90;;;;;;4882136;29;20245;-73
2023/03/05 15:09:02;;;;;;;7.77;6.30;;;8.80;99.90;;;;;;4888027;29;21021;-74
2023/03/05 15:11:28;;;;;;;7.20;6.10;;;8.70;99.90;;;;;;4892616;29;20448;-72
2023/03/05 15:13:54;;;;;;;8.70;6.30;;;8.80;99.90;;;;;;4894716;29;20475;-73
2023/03/05 15:16:21;;;;;;;8.70;6.37;;;8.70;99.90;;;;;;4888983;29;20232;-73